Time;durP1;ratioP1;P1;durP2;ratioP2;P2;SDS_P1;SDS_P2;PMS_P1;PMS_P2;Temp;Humidity;BMP_temperature;BMP_pressure;BME280_temperature;BME280_humidity;BME280_pressure;Samples;Min_cycle;Max_cycle;Signal;HPM_P1;HPM_P2
2022/07/30 00:02:23;;;;;;;4.47;3.20;;;14.70;99.90;;;;;;5016498;28;20049;-73
2022/07/30 00:04:49;;;;;;;3.85;2.90;;;14.60;99.90;;;;;;5033933;28;20077;-73
2022/07/30 00:07:15;;;;;;;4.63;2.67;;;14.60;99.90;;;;;;5016459;28;20050;-72
2022/07/30 00:09:40;;;;;;;5.30;2.95;;;14.60;99.90;;;;;;5034722;28;20372;-72
2022/07/30 00:12:07;;;;;;;3.38;2.50;;;14.60;99.90;;;;;;5016371;28;20111;-72
2022/07/30 00:14:33;;;;;;;5.35;2.97;;;14.60;99.90;;;;;;5017236;28;20180;-72
2022/07/30 00:17:00;;;;;;;3.67;2.80;;;14.50;99.90;;;;;;5033737;28;20089;-72
2022/07/30 00:19:27;;;;;;;4.47;2.83;;;14.50;99.90;;;;;;5033804;28;20084;-72
2022/07/30 00:21:53;;;;;;;4.15;2.47;;;14.60;99.90;;;;;;5033760;28;20046;-72
2022/07/30 00:24:20;;;;;;;5.63;2.65;;;14.50;99.90;;;;;;5034341;28;20515;-72
2022/07/30 00:26:45;;;;;;;5.50;2.35;;;14.30;99.90;;;;;;5033642;28;20067;-72
2022/07/30 00:29:11;;;;;;;4.88;3.03;;;14.10;99.90;;;;;;5034214;28;20068;-72
2022/07/30 00:31:37;;;;;;;2.80;2.40;;;13.90;99.90;;;;;;5033993;28;20047;-72
2022/07/30 00:34:03;;;;;;;4.38;2.28;;;13.90;99.90;;;;;;5033756;28;20045;-72
2022/07/30 00:36:28;;;;;;;4.53;2.70;;;13.80;99.90;;;;;;5033496;28;20454;-72
2022/07/30 00:38:54;;;;;;;3.47;3.10;;;13.60;99.90;;;;;;5033690;28;20051;-72
2022/07/30 00:41:20;;;;;;;5.03;2.90;;;13.70;99.90;;;;;;5016735;28;20445;-72
2022/07/30 00:43:45;;;;;;;6.63;3.40;;;13.80;99.90;;;;;;5033570;28;20053;-72
2022/07/30 00:46:13;;;;;;;7.18;3.03;;;13.70;99.90;;;;;;5016488;28;20074;-72
2022/07/30 00:48:39;;;;;;;3.78;2.60;;;13.70;99.90;;;;;;5032938;28;20533;-72
2022/07/30 00:51:05;;;;;;;5.90;3.53;;;13.80;99.90;;;;;;5034035;28;20041;-72
2022/07/30 00:53:31;;;;;;;4.63;3.60;;;13.80;99.90;;;;;;5033246;28;20498;-72
2022/07/30 00:55:57;;;;;;;5.25;3.88;;;13.90;99.90;;;;;;5033230;28;20071;-72
2022/07/30 00:58:23;;;;;;;5.60;3.80;;;13.80;99.90;;;;;;5032985;28;20506;-72
2022/07/30 01:00:49;;;;;;;6.25;3.15;;;13.90;99.90;;;;;;5016603;28;20068;-72
2022/07/30 01:03:14;;;;;;;6.43;3.40;;;14.00;99.90;;;;;;5032967;28;20450;-72
2022/07/30 01:05:40;;;;;;;5.20;3.60;;;13.90;99.90;;;;;;5033218;28;20057;-72
2022/07/30 01:08:06;;;;;;;4.57;3.40;;;13.80;99.90;;;;;;5015493;28;20085;-72
2022/07/30 01:10:31;;;;;;;5.63;3.90;;;13.80;99.90;;;;;;5033200;28;20390;-72
2022/07/30 01:12:58;;;;;;;5.53;3.72;;;13.80;99.90;;;;;;5032722;28;20115;-72
2022/07/30 01:15:24;;;;;;;4.13;3.50;;;13.80;99.90;;;;;;5033099;28;20486;-72
2022/07/30 01:17:52;;;;;;;6.70;3.85;;;13.80;99.90;;;;;;5015552;28;20053;-72
2022/07/30 01:20:23;;;;;;;4.88;3.63;;;13.70;99.90;;;;;;5033056;28;20046;-72
2022/07/30 01:23:13;;;;;;;3.67;2.97;;;13.70;99.90;;;;;;5015542;28;20041;-72
2022/07/30 01:25:57;;;;;;;4.93;2.95;;;13.60;99.90;;;;;;5033293;28;20053;-72
2022/07/30 01:28:27;;;;;;;5.60;3.75;;;13.60;99.90;;;;;;5033052;28;20045;-72
2022/07/30 01:30:56;;;;;;;4.47;3.33;;;13.60;99.90;;;;;;5015329;28;20052;-72
2022/07/30 01:33:24;;;;;;;4.35;3.58;;;13.70;99.90;;;;;;5033625;28;20087;-72
2022/07/30 01:35:51;;;;;;;4.50;2.80;;;13.70;99.90;;;;;;5032969;28;20057;-72
2022/07/30 01:38:21;;;;;;;5.78;2.97;;;13.80;99.90;;;;;;5033095;28;20049;-72
2022/07/30 01:40:49;;;;;;;4.53;2.60;;;13.80;99.90;;;;;;5032873;28;20095;-72
2022/07/30 01:43:16;;;;;;;4.00;2.60;;;13.80;99.90;;;;;;5032840;28;20046;-72
2022/07/30 01:45:43;;;;;;;5.35;3.65;;;13.80;99.90;;;;;;5032760;28;20053;-72
2022/07/30 01:48:10;;;;;;;6.53;2.78;;;13.70;99.90;;;;;;5032816;28;20049;-72
2022/07/30 01:50:41;;;;;;;4.60;2.85;;;13.70;99.90;;;;;;5032771;28;20056;-72
2022/07/30 01:53:07;;;;;;;4.82;3.67;;;13.60;99.90;;;;;;5032725;28;20080;-72
2022/07/30 01:55:40;;;;;;;7.38;3.88;;;13.50;99.90;;;;;;4998936;28;20410;-72
2022/07/30 01:58:08;;;;;;;5.97;4.10;;;13.40;99.90;;;;;;5033167;28;20049;-72
2022/07/30 02:00:39;;;;;;;4.30;3.75;;;13.40;99.90;;;;;;5033180;28;20045;-72
2022/07/30 02:03:07;;;;;;;22.98;5.82;;;13.40;99.90;;;;;;5032940;28;20056;-72
2022/07/30 02:05:35;;;;;;;5.82;3.53;;;13.30;99.90;;;;;;5015202;28;20089;-72
2022/07/30 02:08:19;;;;;;;5.47;4.55;;;13.10;99.90;;;;;;5015331;28;20049;-72
2022/07/30 02:10:55;;;;;;;5.18;3.53;;;13.10;99.90;;;;;;5032671;28;20053;-72
2022/07/30 02:13:25;;;;;;;4.97;4.20;;;12.90;99.90;;;;;;5032805;28;20057;-72
2022/07/30 02:16:08;;;;;;;6.07;4.40;;;12.90;99.90;;;;;;5033830;28;20049;-72
2022/07/30 02:18:55;;;;;;;4.25;3.50;;;12.80;99.90;;;;;;5036883;28;20045;-72
2022/07/30 02:21:23;;;;;;;4.57;3.80;;;12.80;99.90;;;;;;5018510;28;20085;-72
2022/07/30 02:23:50;;;;;;;6.32;4.00;;;12.90;99.90;;;;;;5035802;28;20111;-72
2022/07/30 02:26:19;;;;;;;5.70;3.70;;;12.90;99.90;;;;;;5035835;28;20132;-72
2022/07/30 02:28:51;;;;;;;4.82;3.65;;;12.90;99.90;;;;;;5035836;28;20048;-72
2022/07/30 02:31:21;;;;;;;4.97;3.95;;;12.90;99.90;;;;;;5036015;28;20081;-72
2022/07/30 02:33:49;;;;;;;5.13;3.53;;;12.90;99.90;;;;;;5035841;28;20045;-72
2022/07/30 02:36:17;;;;;;;6.07;4.38;;;12.80;99.90;;;;;;5035759;28;20060;-72
2022/07/30 02:38:44;;;;;;;6.05;3.70;;;12.80;99.90;;;;;;5018196;28;20152;-72
2022/07/30 02:41:11;;;;;;;5.20;4.10;;;12.90;99.90;;;;;;5035596;28;20096;-72
2022/07/30 02:43:40;;;;;;;4.47;3.22;;;12.90;99.90;;;;;;5035574;28;20120;-72
2022/07/30 02:46:07;;;;;;;7.35;4.35;;;12.80;99.90;;;;;;5035972;28;20128;-72
2022/07/30 02:48:37;;;;;;;5.18;3.40;;;12.80;99.90;;;;;;5035474;28;20124;-72
2022/07/30 02:51:05;;;;;;;6.95;4.40;;;12.80;99.90;;;;;;5018376;28;20115;-72
2022/07/30 02:53:31;;;;;;;8.50;3.75;;;12.80;99.90;;;;;;5035395;28;20045;-72
2022/07/30 02:55:59;;;;;;;7.00;4.85;;;12.80;99.90;;;;;;5035358;28;20505;-72
2022/07/30 02:58:27;;;;;;;9.93;6.43;;;12.80;99.90;;;;;;5035342;28;20554;-72
2022/07/30 03:00:54;;;;;;;20.15;5.45;;;12.90;99.90;;;;;;5035354;28;20397;-72
2022/07/30 03:03:20;;;;;;;49.55;7.00;;;12.90;99.90;;;;;;5036044;28;20049;-72
2022/07/30 03:05:50;;;;;;;53.63;6.70;;;12.90;99.90;;;;;;5017784;28;20441;-72
2022/07/30 03:08:16;;;;;;;14.77;5.63;;;12.90;99.90;;;;;;5017451;28;20050;-72
2022/07/30 03:10:44;;;;;;;7.95;4.53;;;12.80;99.90;;;;;;5017467;28;20045;-72
2022/07/30 03:13:11;;;;;;;6.35;4.90;;;12.80;99.90;;;;;;5017497;28;20624;-72
2022/07/30 03:15:42;;;;;;;6.53;5.07;;;12.70;99.90;;;;;;5035054;28;20128;-72
2022/07/30 03:18:12;;;;;;;8.60;5.80;;;12.60;99.90;;;;;;5035453;28;20045;-72
2022/07/30 03:20:38;;;;;;;7.47;5.43;;;12.50;99.90;;;;;;5034899;28;20049;-72
2022/07/30 03:23:06;;;;;;;7.53;4.80;;;12.40;99.90;;;;;;5013938;28;20112;-72
2022/07/30 03:25:33;;;;;;;7.13;4.97;;;12.30;99.90;;;;;;5015536;28;20050;-72
2022/07/30 03:28:05;;;;;;;8.80;5.15;;;12.20;99.90;;;;;;5014814;28;20117;-72
2022/07/30 03:30:33;;;;;;;6.93;4.85;;;12.20;99.90;;;;;;5015515;28;20085;-72
2022/07/30 03:32:59;;;;;;;6.05;4.78;;;12.30;99.90;;;;;;5014937;28;20042;-72
2022/07/30 03:35:25;;;;;;;10.27;4.80;;;12.40;99.90;;;;;;5015340;28;20042;-72
2022/07/30 03:37:53;;;;;;;5.20;3.92;;;12.40;99.90;;;;;;5014130;28;20058;-72
2022/07/30 03:40:19;;;;;;;5.57;4.00;;;12.40;99.90;;;;;;5013797;28;20516;-72
2022/07/30 03:42:46;;;;;;;5.22;4.10;;;12.40;99.90;;;;;;5013639;28;20104;-72
2022/07/30 03:45:13;;;;;;;6.80;4.60;;;12.30;99.90;;;;;;5014696;28;20364;-72
2022/07/30 03:47:41;;;;;;;5.80;4.07;;;12.20;99.90;;;;;;5015236;28;20387;-72
2022/07/30 03:50:08;;;;;;;6.07;4.43;;;12.20;99.90;;;;;;5014419;28;20100;-72
2022/07/30 03:52:37;;;;;;;6.82;4.43;;;12.20;99.90;;;;;;5012565;28;20121;-72
2022/07/30 03:55:05;;;;;;;6.18;3.72;;;12.20;99.90;;;;;;5013890;28;20081;-72
2022/07/30 03:57:31;;;;;;;5.05;4.10;;;12.20;99.90;;;;;;5013096;28;20072;-72
2022/07/30 03:59:57;;;;;;;4.90;3.60;;;12.20;99.90;;;;;;5014052;28;20050;-72
2022/07/30 04:02:23;;;;;;;5.03;3.80;;;12.20;99.90;;;;;;5014315;28;20038;-72
2022/07/30 04:04:49;;;;;;;7.00;4.50;;;12.20;99.90;;;;;;5013289;28;20493;-72
2022/07/30 04:07:15;;;;;;;5.20;3.53;;;12.20;99.90;;;;;;5014320;28;20093;-72
2022/07/30 04:09:41;;;;;;;4.22;3.47;;;12.20;99.90;;;;;;5013265;28;20056;-74
2022/07/30 04:12:07;;;;;;;6.60;4.10;;;12.20;99.90;;;;;;5014252;28;20038;-72
2022/07/30 04:14:43;;;;;;;6.53;3.88;;;12.20;99.90;;;;;;5013147;28;20137;-72
2022/07/30 04:17:20;;;;;;;6.03;4.72;;;12.30;99.90;;;;;;5013104;28;20057;-71
2022/07/30 04:19:51;;;;;;;6.50;4.43;;;12.30;99.90;;;;;;5014736;28;20042;-71
2022/07/30 04:22:25;;;;;;;5.10;4.35;;;12.40;99.90;;;;;;5016615;28;20042;-71
2022/07/30 04:24:52;;;;;;;7.07;4.72;;;12.40;99.90;;;;;;5033596;28;20060;-71
2022/07/30 04:27:18;;;;;;;6.65;4.85;;;12.40;99.90;;;;;;5033534;28;20056;-72
2022/07/30 04:29:45;;;;;;;6.13;3.97;;;12.40;99.90;;;;;;5033775;28;20552;-72
2022/07/30 04:32:11;;;;;;;6.70;4.82;;;12.40;99.90;;;;;;5034307;28;20045;-71
2022/07/30 04:34:48;;;;;;;5.50;4.38;;;12.50;99.90;;;;;;5016413;28;20446;-71
2022/07/30 04:37:19;;;;;;;6.18;4.75;;;12.50;99.90;;;;;;5016754;28;20087;-71
2022/07/30 04:39:45;;;;;;;7.07;5.32;;;12.50;99.90;;;;;;5015572;28;20478;-72
2022/07/30 04:42:11;;;;;;;7.82;5.70;;;12.50;99.90;;;;;;4999977;28;20053;-71
2022/07/30 04:44:37;;;;;;;8.20;5.15;;;12.60;99.90;;;;;;5033409;28;20064;-72
2022/07/30 04:47:03;;;;;;;7.43;5.53;;;12.70;99.90;;;;;;5033210;28;20478;-72
2022/07/30 04:49:30;;;;;;;7.43;4.88;;;12.70;99.90;;;;;;5015653;28;20061;-71
2022/07/30 04:51:57;;;;;;;6.82;5.00;;;12.80;99.90;;;;;;5015630;28;20101;-71
2022/07/30 04:54:24;;;;;;;8.05;5.57;;;12.90;99.90;;;;;;5033305;28;20110;-71
2022/07/30 04:56:51;;;;;;;5.82;4.50;;;12.90;99.90;;;;;;5015847;28;20050;-71
2022/07/30 04:59:17;;;;;;;6.38;5.28;;;13.00;99.90;;;;;;5033225;28;20046;-71
2022/07/30 05:01:48;;;;;;;7.78;5.55;;;13.10;99.90;;;;;;5033196;28;20134;-71
2022/07/30 05:04:15;;;;;;;7.80;5.38;;;13.30;99.90;;;;;;5033260;28;20045;-71
2022/07/30 05:06:41;;;;;;;5.97;4.72;;;13.40;99.90;;;;;;5015502;28;20107;-71
2022/07/30 05:09:07;;;;;;;6.57;5.20;;;13.50;99.90;;;;;;5016506;28;20355;-71
2022/07/30 05:11:33;;;;;;;7.75;5.55;;;13.60;99.90;;;;;;5016440;28;20053;-71
2022/07/30 05:13:59;;;;;;;7.20;4.78;;;13.80;99.90;;;;;;5016099;28;20060;-71
2022/07/30 05:16:25;;;;;;;6.88;5.18;;;13.90;99.90;;;;;;5033758;28;20121;-72
2022/07/30 05:18:51;;;;;;;8.68;6.15;;;14.00;99.90;;;;;;5015270;28;20049;-71
2022/07/30 05:21:16;;;;;;;8.75;7.07;;;14.10;99.90;;;;;;5015554;28;20055;-72
2022/07/30 05:23:42;;;;;;;8.50;6.03;;;14.20;99.90;;;;;;5033438;28;20060;-71
2022/07/30 05:26:08;;;;;;;9.25;6.93;;;14.30;99.90;;;;;;5032706;28;20050;-71
2022/07/30 05:28:33;;;;;;;9.13;6.72;;;14.50;99.90;;;;;;5032949;28;20100;-71
2022/07/30 05:30:59;;;;;;;9.65;7.00;;;14.60;99.90;;;;;;5032939;28;20082;-71
2022/07/30 05:33:25;;;;;;;10.50;8.15;;;14.80;99.90;;;;;;5033022;28;20127;-71
2022/07/30 05:35:51;;;;;;;11.38;7.82;;;14.90;99.90;;;;;;5015877;28;20045;-71
2022/07/30 05:38:16;;;;;;;8.82;7.30;;;15.10;99.90;;;;;;5032854;28;20144;-71
2022/07/30 05:40:43;;;;;;;9.50;7.10;;;15.20;99.90;;;;;;5032836;28;20418;-71
2022/07/30 05:43:09;;;;;;;10.38;7.35;;;15.30;99.90;;;;;;5015101;28;20053;-71
2022/07/30 05:45:35;;;;;;;9.55;7.30;;;15.50;99.90;;;;;;5033567;28;20046;-71
2022/07/30 05:48:00;;;;;;;10.48;7.80;;;15.60;99.90;;;;;;5033189;28;20483;-71
2022/07/30 05:50:26;;;;;;;10.38;7.28;;;15.60;99.90;;;;;;5015917;28;20052;-71
2022/07/30 05:52:52;;;;;;;9.45;7.25;;;15.80;99.90;;;;;;5037204;28;20246;-71
2022/07/30 05:55:18;;;;;;;10.05;7.00;;;15.80;99.90;;;;;;5019397;28;20466;-71
2022/07/30 05:57:43;;;;;;;9.15;6.97;;;15.90;99.90;;;;;;5036441;28;20041;-71
2022/07/30 06:00:10;;;;;;;7.38;6.32;;;15.90;99.90;;;;;;5037024;28;20128;-71
2022/07/30 06:02:38;;;;;;;7.38;6.25;;;16.00;99.90;;;;;;5036592;28;20045;-71
2022/07/30 06:05:04;;;;;;;8.80;6.38;;;16.00;99.90;;;;;;5018859;28;20050;-71
2022/07/30 06:07:30;;;;;;;8.40;6.20;;;16.00;99.90;;;;;;5036254;28;20111;-71
2022/07/30 06:10:01;;;;;;;7.53;6.07;;;16.00;99.90;;;;;;5036743;28;20049;-71
2022/07/30 06:12:28;;;;;;;7.22;5.93;;;16.10;99.90;;;;;;5018860;28;20084;-71
2022/07/30 06:14:54;;;;;;;6.43;5.63;;;16.20;99.90;;;;;;5036195;28;20072;-71
2022/07/30 06:17:20;;;;;;;7.63;5.75;;;16.30;99.90;;;;;;5036016;28;20056;-71
2022/07/30 06:19:45;;;;;;;7.20;6.43;;;16.30;99.90;;;;;;5036008;28;20049;-71
2022/07/30 06:22:11;;;;;;;7.88;6.07;;;16.40;99.90;;;;;;5018280;28;20060;-71
2022/07/30 06:24:37;;;;;;;8.10;5.57;;;16.50;99.90;;;;;;5036629;28;20053;-71
2022/07/30 06:27:03;;;;;;;8.40;5.50;;;16.60;99.90;;;;;;5036432;28;20045;-72
2022/07/30 06:29:28;;;;;;;6.97;5.32;;;16.60;99.90;;;;;;5035828;28;20056;-72
2022/07/30 06:31:55;;;;;;;6.28;4.90;;;16.70;99.90;;;;;;5018110;28;20033;-72
2022/07/30 06:34:20;;;;;;;6.15;5.25;;;16.80;99.90;;;;;;5035757;28;20106;-72
2022/07/30 06:36:46;;;;;;;6.22;5.13;;;16.90;99.90;;;;;;5035744;28;20087;-71
2022/07/30 06:39:12;;;;;;;7.07;5.25;;;17.00;99.90;;;;;;5036470;28;20057;-72
2022/07/30 06:41:37;;;;;;;5.90;5.18;;;17.10;99.90;;;;;;5035854;28;20052;-71
2022/07/30 06:44:03;;;;;;;7.95;5.05;;;17.10;99.90;;;;;;5035897;28;20080;-72
2022/07/30 06:46:29;;;;;;;7.10;4.88;;;17.20;99.90;;;;;;5036252;28;20053;-71
2022/07/30 06:48:55;;;;;;;8.00;4.75;;;17.30;99.90;;;;;;5035523;28;20493;-71
2022/07/30 06:51:20;;;;;;;7.00;4.40;;;17.40;99.90;;;;;;5001577;28;20065;-65
2022/07/30 06:53:47;;;;;;;7.03;4.90;;;17.40;99.90;;;;;;5017905;28;20053;-65
2022/07/30 06:56:13;;;;;;;6.03;4.32;;;17.60;99.90;;;;;;5035363;28;20100;-65
2022/07/30 06:58:39;;;;;;;6.35;4.68;;;17.70;99.90;;;;;;5035359;28;20494;-64
2022/07/30 07:01:05;;;;;;;4.95;4.30;;;17.70;99.90;;;;;;5017002;28;20116;-64
2022/07/30 07:03:31;;;;;;;5.47;4.20;;;17.90;99.90;;;;;;5035638;28;20129;-64
2022/07/30 07:05:56;;;;;;;5.90;4.53;;;18.00;99.90;;;;;;5035200;28;20084;-65
2022/07/30 07:08:22;;;;;;;5.07;4.10;;;18.10;99.90;;;;;;5017965;28;20057;-65
2022/07/30 07:10:48;;;;;;;7.05;5.78;;;18.20;99.90;;;;;;5035113;28;20050;-64
2022/07/30 07:13:14;;;;;;;7.13;4.60;;;18.30;99.90;;;;;;5035015;28;20088;-64
2022/07/30 07:15:40;;;;;;;6.72;5.10;;;18.30;99.90;;;;;;5035132;28;20050;-65
2022/07/30 07:18:06;;;;;;;6.78;5.10;;;18.40;99.90;;;;;;5034841;28;20081;-65
2022/07/30 07:20:33;;;;;;;6.55;4.82;;;18.50;99.90;;;;;;5035644;28;20088;-65
2022/07/30 07:22:59;;;;;;;7.63;4.93;;;18.60;99.90;;;;;;5034623;28;20152;-64
2022/07/30 07:25:25;;;;;;;6.30;4.97;;;18.60;99.90;;;;;;5034548;28;20458;-64
2022/07/30 07:27:51;;;;;;;7.38;5.43;;;18.70;99.90;;;;;;5000950;28;20053;-64
2022/07/30 07:30:16;;;;;;;5.72;5.00;;;18.70;99.90;;;;;;5035255;28;20049;-64
2022/07/30 07:32:42;;;;;;;7.93;5.00;;;18.70;99.90;;;;;;5035125;28;20507;-64
2022/07/30 07:35:08;;;;;;;5.93;4.70;;;18.70;99.90;;;;;;5035069;28;20045;-65
2022/07/30 07:37:34;;;;;;;6.88;5.03;;;18.70;99.90;;;;;;5034613;28;20395;-64
2022/07/30 07:40:00;;;;;;;5.90;4.60;;;18.80;99.90;;;;;;5034665;28;20047;-65
2022/07/30 07:42:25;;;;;;;5.05;4.20;;;18.90;99.90;;;;;;5034553;28;20041;-64
2022/07/30 07:44:51;;;;;;;7.55;4.40;;;19.00;99.90;;;;;;5034474;28;20128;-64
2022/07/30 07:47:17;;;;;;;6.40;4.60;;;19.10;99.90;;;;;;5034449;28;20092;-64
2022/07/30 07:49:42;;;;;;;5.53;4.43;;;19.20;99.90;;;;;;5034988;28;20432;-65
2022/07/30 07:52:08;;;;;;;5.32;4.38;;;19.20;99.90;;;;;;5034284;28;20163;-65
2022/07/30 07:54:34;;;;;;;5.47;4.32;;;19.30;99.90;;;;;;5017246;28;20033;-65
2022/07/30 07:57:00;;;;;;;7.57;4.57;;;19.40;99.90;;;;;;5016058;28;20049;-64
2022/07/30 07:59:25;;;;;;;7.18;4.55;;;19.50;99.90;;;;;;5016363;28;20052;-65
2022/07/30 08:01:51;;;;;;;5.45;4.38;;;19.50;99.90;;;;;;5034081;28;20041;-65
2022/07/30 08:04:17;;;;;;;7.22;5.05;;;19.60;99.90;;;;;;5034114;28;20041;-65
2022/07/30 08:06:42;;;;;;;7.82;4.82;;;19.60;99.90;;;;;;5034078;28;20091;-64
2022/07/30 08:09:08;;;;;;;7.35;4.90;;;19.60;99.90;;;;;;5033946;28;20038;-65
2022/07/30 08:11:34;;;;;;;7.07;5.55;;;19.70;99.90;;;;;;5034352;28;20397;-64
2022/07/30 08:13:59;;;;;;;6.18;4.95;;;19.70;99.90;;;;;;5033156;28;20041;-66
2022/07/30 08:16:25;;;;;;;6.40;5.30;;;19.70;99.90;;;;;;5034185;28;20059;-65
2022/07/30 08:18:51;;;;;;;10.07;5.38;;;19.80;99.90;;;;;;5033751;28;20171;-65
2022/07/30 08:21:17;;;;;;;6.72;5.38;;;19.70;99.90;;;;;;5033786;28;20466;-65
2022/07/30 08:23:42;;;;;;;5.90;4.68;;;19.80;99.90;;;;;;5033811;28;20450;-65
2022/07/30 08:26:08;;;;;;;6.18;4.97;;;19.80;99.90;;;;;;5033646;28;20049;-66
2022/07/30 08:28:37;;;;;;;6.72;4.82;;;19.80;99.90;;;;;;5033599;28;20462;-64
2022/07/30 08:31:03;;;;;;;5.47;4.95;;;19.80;99.90;;;;;;5033663;28;20434;-65
2022/07/30 08:33:29;;;;;;;7.75;5.70;;;19.90;99.90;;;;;;5034077;28;20045;-64
2022/07/30 08:35:54;;;;;;;6.95;5.30;;;19.90;99.90;;;;;;5033527;28;20433;-64
2022/07/30 08:38:20;;;;;;;7.45;5.28;;;20.00;99.90;;;;;;5033829;28;20041;-64
2022/07/30 08:40:46;;;;;;;6.30;5.03;;;20.00;99.90;;;;;;5033437;28;20041;-64
2022/07/30 08:43:12;;;;;;;6.32;4.93;;;20.00;99.90;;;;;;5033684;28;20041;-65
2022/07/30 08:45:38;;;;;;;5.55;4.95;;;20.10;99.90;;;;;;5033399;28;20044;-65
2022/07/30 08:48:09;;;;;;;5.70;4.53;;;20.20;99.90;;;;;;5033488;28;20092;-64
2022/07/30 08:50:35;;;;;;;5.28;4.10;;;20.20;99.90;;;;;;5016286;28;20354;-64
2022/07/30 08:53:02;;;;;;;5.95;4.10;;;20.30;99.90;;;;;;5033280;28;20049;-64
2022/07/30 08:55:28;;;;;;;7.60;4.35;;;20.40;99.90;;;;;;4999464;28;20510;-64
2022/07/30 08:57:54;;;;;;;5.15;3.90;;;20.40;99.90;;;;;;5015553;28;20175;-64
2022/07/30 09:00:20;;;;;;;6.68;4.88;;;20.50;99.90;;;;;;5033293;28;20045;-64
2022/07/30 09:02:46;;;;;;;6.47;4.40;;;20.60;99.90;;;;;;5033216;28;20040;-65
2022/07/30 09:05:12;;;;;;;6.45;4.57;;;20.70;99.90;;;;;;5033281;28;20072;-65
2022/07/30 09:07:39;;;;;;;4.43;3.80;;;20.70;99.90;;;;;;5015515;28;20351;-66
2022/07/30 09:10:07;;;;;;;6.05;3.55;;;20.70;99.90;;;;;;5033126;28;20052;-65
2022/07/30 09:12:44;;;;;;;7.78;4.07;;;20.70;99.90;;;;;;5033050;28;20103;-65
2022/07/30 09:15:17;;;;;;;6.00;3.80;;;20.80;99.90;;;;;;5033124;28;20038;-65
2022/07/30 09:17:48;;;;;;;3.97;3.20;;;20.80;99.90;;;;;;5016147;28;20051;-65
2022/07/30 09:20:14;;;;;;;5.65;3.35;;;20.90;99.90;;;;;;5033557;28;20056;-65
2022/07/30 09:22:45;;;;;;;5.50;3.40;;;21.00;99.90;;;;;;5015466;28;20057;-64
2022/07/30 09:25:11;;;;;;;6.10;3.00;;;21.00;99.90;;;;;;5035172;28;20049;-65
2022/07/30 09:27:48;;;;;;;4.40;2.70;;;21.10;99.90;;;;;;5037026;28;20056;-65
2022/07/30 09:30:15;;;;;;;5.20;3.00;;;21.10;99.90;;;;;;5036963;28;20095;-65
2022/07/30 09:32:51;;;;;;;5.10;3.20;;;21.30;99.90;;;;;;5020026;28;20041;-66
2022/07/30 09:35:17;;;;;;;6.00;2.90;;;21.30;99.90;;;;;;5037008;28;20533;-65
2022/07/30 09:37:44;;;;;;;6.43;3.13;;;21.40;99.90;;;;;;5037421;28;20129;-65
2022/07/30 09:40:16;;;;;;;5.43;2.88;;;21.40;99.90;;;;;;5036826;28;20049;-65
2022/07/30 09:42:42;;;;;;;4.07;2.65;;;21.50;99.90;;;;;;5037406;28;20091;-65
2022/07/30 09:45:10;;;;;;;4.30;2.92;;;21.60;99.90;;;;;;5036905;28;20041;-65
2022/07/30 09:47:38;;;;;;;5.53;2.90;;;21.60;99.90;;;;;;5037323;28;20111;-65
2022/07/30 09:50:06;;;;;;;4.45;2.95;;;21.70;99.90;;;;;;5036657;28;20103;-65
2022/07/30 09:52:32;;;;;;;4.53;3.08;;;21.70;99.90;;;;;;5036541;28;20073;-64
2022/07/30 09:54:58;;;;;;;3.97;2.78;;;21.70;99.90;;;;;;5037068;28;20481;-65
2022/07/30 09:57:24;;;;;;;5.28;2.63;;;21.80;99.90;;;;;;5036548;28;20041;-65
2022/07/30 09:59:49;;;;;;;4.22;2.78;;;21.90;99.90;;;;;;5036815;28;20049;-65
2022/07/30 10:02:15;;;;;;;4.65;2.45;;;21.80;99.90;;;;;;5036902;28;20045;-65
2022/07/30 10:04:41;;;;;;;4.30;2.30;;;21.90;99.90;;;;;;5035982;28;20045;-65
2022/07/30 10:07:17;;;;;;;4.05;2.40;;;21.90;99.90;;;;;;5036379;28;20045;-65
2022/07/30 10:09:46;;;;;;;4.60;2.30;;;22.00;99.90;;;;;;5037060;28;20045;-65
2022/07/30 10:12:13;;;;;;;4.97;2.60;;;22.10;99.90;;;;;;5036702;28;20045;-65
2022/07/30 10:14:44;;;;;;;5.13;2.22;;;22.20;99.90;;;;;;5036308;28;20084;-65
2022/07/30 10:17:11;;;;;;;3.83;2.38;;;22.20;99.90;;;;;;5036575;28;20041;-66
2022/07/30 10:19:37;;;;;;;4.95;3.08;;;22.30;99.90;;;;;;5018965;28;20381;-67
2022/07/30 10:22:04;;;;;;;4.32;2.38;;;22.40;99.90;;;;;;5036073;28;20049;-65
2022/07/30 10:24:33;;;;;;;5.55;2.83;;;22.40;99.90;;;;;;5037006;28;20084;-65
2022/07/30 10:26:59;;;;;;;5.82;2.45;;;22.50;99.90;;;;;;5036825;28;20045;-66
2022/07/30 10:29:25;;;;;;;3.65;2.20;;;22.50;99.90;;;;;;5035602;28;20052;-65
2022/07/30 10:31:51;;;;;;;3.67;2.35;;;22.60;99.90;;;;;;5035809;28;20137;-66
2022/07/30 10:34:18;;;;;;;3.75;2.40;;;22.60;99.90;;;;;;5035856;28;20404;-65
2022/07/30 10:36:49;;;;;;;5.20;2.42;;;22.60;99.90;;;;;;5018144;28;20450;-66
2022/07/30 10:39:20;;;;;;;5.47;2.10;;;22.50;99.90;;;;;;5035973;28;20453;-65
2022/07/30 10:41:53;;;;;;;4.68;2.22;;;22.30;99.90;;;;;;5036443;28;20060;-65
2022/07/30 10:44:30;;;;;;;8.63;2.30;;;22.30;99.90;;;;;;5035886;28;20085;-65
2022/07/30 10:47:07;;;;;;;3.28;2.00;;;22.40;99.90;;;;;;5017958;28;20129;-65
2022/07/30 10:49:33;;;;;;;4.55;2.25;;;22.50;99.90;;;;;;5036056;28;20129;-66
2022/07/30 10:51:59;;;;;;;3.30;2.30;;;22.60;99.90;;;;;;5036129;28;20363;-65
2022/07/30 10:54:35;;;;;;;4.15;2.00;;;22.70;99.90;;;;;;5035900;28;20046;-66
2022/07/30 10:57:18;;;;;;;3.75;2.05;;;22.80;99.90;;;;;;5018226;28;20426;-65
2022/07/30 10:59:59;;;;;;;4.47;2.20;;;22.90;99.90;;;;;;5017649;28;20054;-66
2022/07/30 11:02:26;;;;;;;4.35;2.28;;;22.90;99.90;;;;;;5034992;28;20494;-67
2022/07/30 11:05:17;;;;;;;3.50;1.92;;;22.70;99.90;;;;;;5035285;28;20041;-67
2022/07/30 11:07:43;;;;;;;4.65;1.98;;;22.60;99.90;;;;;;5035261;28;20158;-67
2022/07/30 11:10:33;;;;;;;3.45;1.70;;;22.40;99.90;;;;;;5035099;28;20049;-67
2022/07/30 11:12:59;;;;;;;2.65;1.73;;;22.30;99.90;;;;;;5035103;28;20489;-66
2022/07/30 11:15:54;;;;;;;3.72;2.13;;;22.50;99.90;;;;;;5035023;28;20128;-68
2022/07/30 11:18:21;;;;;;;3.40;1.77;;;22.70;99.90;;;;;;5017936;28;20391;-67
2022/07/30 11:21:16;;;;;;;3.15;1.80;;;22.90;99.90;;;;;;5034967;28;20398;-66
2022/07/30 11:23:44;;;;;;;4.55;1.70;;;23.00;99.90;;;;;;5034561;28;20089;-66
2022/07/30 11:26:30;;;;;;;2.95;1.63;;;23.20;99.90;;;;;;5034916;28;20490;-66
2022/07/30 11:28:56;;;;;;;3.78;2.15;;;23.30;99.90;;;;;;5035106;28;20409;-67
2022/07/30 11:31:34;;;;;;;3.80;2.03;;;23.30;99.90;;;;;;5035253;28;20041;-66
2022/07/30 11:34:18;;;;;;;2.60;1.55;;;23.30;99.90;;;;;;5034982;28;20034;-66
2022/07/30 11:37:07;;;;;;;2.45;1.42;;;23.30;99.90;;;;;;5034600;28;20042;-66
2022/07/30 11:39:59;;;;;;;2.85;2.00;;;23.50;99.90;;;;;;5035072;28;20199;-67
2022/07/30 11:42:30;;;;;;;2.40;1.20;;;23.60;99.90;;;;;;5030472;28;20115;-67
2022/07/30 11:45:14;;;;;;;3.10;1.40;;;23.60;99.90;;;;;;5034592;28;20038;-67
2022/07/30 11:47:44;;;;;;;4.05;1.50;;;23.70;99.90;;;;;;5034805;28;20049;-66
2022/07/30 11:50:24;;;;;;;2.97;1.50;;;23.70;99.90;;;;;;5034421;28;20045;-66
2022/07/30 11:52:55;;;;;;;3.55;1.92;;;23.80;99.90;;;;;;5034601;28;20492;-67
2022/07/30 11:55:31;;;;;;;3.67;1.83;;;23.70;99.90;;;;;;5034225;28;20193;-66
2022/07/30 11:57:58;;;;;;;3.20;1.63;;;23.60;99.90;;;;;;5035108;28;20052;-66
2022/07/30 12:00:25;;;;;;;3.63;1.75;;;23.60;99.90;;;;;;5034176;28;20049;-67
2022/07/30 12:02:51;;;;;;;2.50;1.60;;;23.50;99.90;;;;;;5035023;28;20041;-67
2022/07/30 12:05:24;;;;;;;2.67;1.42;;;23.40;99.90;;;;;;5033976;28;20049;-67
2022/07/30 12:07:54;;;;;;;3.47;1.38;;;23.30;99.90;;;;;;5033941;28;20103;-67
2022/07/30 12:10:20;;;;;;;3.05;1.50;;;23.40;99.90;;;;;;5033515;28;20087;-66
2022/07/30 12:12:46;;;;;;;4.18;1.42;;;23.40;99.90;;;;;;5033719;28;20046;-66
2022/07/30 12:15:31;;;;;;;3.13;1.75;;;23.50;99.90;;;;;;5016362;28;20056;-66
2022/07/30 12:17:57;;;;;;;3.45;1.55;;;23.70;99.90;;;;;;5034340;28;20053;-66
2022/07/30 12:20:22;;;;;;;4.95;1.67;;;23.60;99.90;;;;;;5016431;28;20079;-67
2022/07/30 12:22:48;;;;;;;2.95;1.83;;;23.50;99.90;;;;;;5033419;28;20059;-66
2022/07/30 12:25:14;;;;;;;2.03;1.40;;;23.40;99.90;;;;;;5034326;28;20506;-66
2022/07/30 12:27:46;;;;;;;2.78;1.50;;;23.50;99.90;;;;;;5034070;28;20049;-66
2022/07/30 12:30:12;;;;;;;3.22;1.50;;;23.70;99.90;;;;;;5016578;28;20078;-66
2022/07/30 12:32:38;;;;;;;5.07;1.90;;;23.70;99.90;;;;;;5033331;28;20045;-66
2022/07/30 12:35:04;;;;;;;3.25;1.60;;;23.70;99.90;;;;;;5033639;28;20466;-67
2022/07/30 12:37:30;;;;;;;3.28;1.60;;;23.80;99.90;;;;;;5033602;28;20063;-67
2022/07/30 12:40:13;;;;;;;4.00;1.48;;;23.90;99.90;;;;;;5015920;28;20045;-67
2022/07/30 12:42:52;;;;;;;4.72;1.60;;;23.80;99.90;;;;;;5033509;28;20478;-66
2022/07/30 12:45:31;;;;;;;2.80;1.40;;;23.70;99.90;;;;;;5033533;28;20053;-66
2022/07/30 12:48:00;;;;;;;2.83;1.67;;;23.80;99.90;;;;;;5033966;28;20076;-66
2022/07/30 12:50:27;;;;;;;3.38;1.80;;;23.90;99.90;;;;;;5034161;28;20366;-66
2022/07/30 12:52:54;;;;;;;2.83;1.55;;;24.00;99.90;;;;;;5033373;28;20041;-66